Time;durP1;ratioP1;P1;durP2;ratioP2;P2;SDS_P1;SDS_P2;PMS_P1;PMS_P2;Temp;Humidity;BMP_temperature;BMP_pressure;BME280_temperature;BME280_humidity;BME280_pressure;Samples;Min_cycle;Max_cycle;Signal;HPM_P1;HPM_P2
2022/09/15 00:01:26;;;;;;;3.03;1.33;;;23.70;64.50;;;;;;5111239;28;20547;-34
2022/09/15 00:03:52;;;;;;;6.93;2.27;;;23.70;64.30;;;;;;5109934;28;20055;-34
2022/09/15 00:06:19;;;;;;;3.70;1.88;;;23.70;64.20;;;;;;5119237;28;20083;-34
2022/09/15 00:08:45;;;;;;;3.63;2.05;;;23.70;64.20;;;;;;5108002;28;20026;-34
2022/09/15 00:11:19;;;;;;;5.22;3.55;;;23.70;64.10;;;;;;5122153;28;20043;-35
2022/09/15 00:13:46;;;;;;;9.60;6.28;;;23.70;64.00;;;;;;5109724;28;20091;-34
2022/09/15 00:16:12;;;;;;;9.98;7.25;;;23.70;64.00;;;;;;5109214;28;20762;-34
2022/09/15 00:18:39;;;;;;;14.50;11.00;;;23.70;64.10;;;;;;5116131;28;20035;-34
2022/09/15 00:21:13;;;;;;;15.73;11.75;;;23.70;64.10;;;;;;5104019;28;20041;-35
2022/09/15 00:23:39;;;;;;;18.23;14.23;;;23.70;64.00;;;;;;5103416;28;20055;-34
2022/09/15 00:26:07;;;;;;;19.90;14.75;;;23.70;63.80;;;;;;5096484;28;20032;-33
2022/09/15 00:28:34;;;;;;;22.58;16.60;;;23.70;63.80;;;;;;5096659;28;20093;-34
2022/09/15 00:31:03;;;;;;;23.10;16.70;;;23.70;63.70;;;;;;5096650;28;20060;-33
2022/09/15 00:33:29;;;;;;;28.65;19.60;;;23.70;63.70;;;;;;5080746;28;20074;-34
2022/09/15 00:35:55;;;;;;;23.25;17.50;;;23.70;63.80;;;;;;5096312;28;20044;-34
2022/09/15 00:38:21;;;;;;;24.50;17.23;;;23.70;63.80;;;;;;5099075;28;20024;-34
2022/09/15 00:40:51;;;;;;;21.02;14.85;;;23.70;63.70;;;;;;5095236;28;20023;-34
2022/09/15 00:43:19;;;;;;;19.48;14.13;;;23.70;63.50;;;;;;5093488;28;20039;-34
2022/09/15 00:45:45;;;;;;;22.98;16.88;;;23.70;63.30;;;;;;5068719;28;20031;-36
2022/09/15 00:48:14;;;;;;;21.88;15.93;;;23.70;63.30;;;;;;5097759;28;20032;-35
2022/09/15 00:50:41;;;;;;;21.38;15.90;;;23.70;63.40;;;;;;5092121;28;20032;-34
2022/09/15 00:53:08;;;;;;;20.88;15.98;;;23.70;63.30;;;;;;5097788;28;20028;-34
2022/09/15 00:55:39;;;;;;;;;;;23.70;63.30;;;;;;5078829;28;20091;-33
2022/09/15 00:58:11;;;;;;;21.35;15.85;;;23.70;63.30;;;;;;5081295;28;19911;-34
2022/09/15 01:00:43;;;;;;;20.77;14.77;;;23.70;63.20;;;;;;5085961;28;20050;-34
2022/09/15 01:03:09;;;;;;;19.88;15.20;;;23.70;63.20;;;;;;5100827;28;20066;-35
2022/09/15 01:05:41;;;;;;;19.55;14.52;;;23.70;63.30;;;;;;5093260;28;20027;-35
2022/09/15 01:08:16;;;;;;;19.23;13.82;;;23.70;63.40;;;;;;5093327;28;20039;-35
2022/09/15 01:10:43;;;;;;;19.23;14.38;;;23.60;63.40;;;;;;5087064;28;20032;-35
2022/09/15 01:13:11;;;;;;;18.70;13.52;;;23.70;63.50;;;;;;5107823;28;20032;-35
2022/09/15 01:16:08;;;;;;;18.70;13.15;;;23.70;63.60;;;;;;5117779;28;20059;-35
2022/09/15 01:19:02;;;;;;;17.67;13.68;;;23.70;63.60;;;;;;5116724;28;20023;-36
2022/09/15 01:21:41;;;;;;;19.08;13.45;;;23.70;63.70;;;;;;5093198;28;20665;-34
2022/09/15 01:24:52;;;;;;;18.38;12.88;;;23.70;63.70;;;;;;5089608;28;20028;-35
2022/09/15 01:27:47;;;;;;;18.63;13.43;;;23.70;63.70;;;;;;5088628;28;20039;-35
2022/09/15 01:30:22;;;;;;;17.05;12.18;;;23.70;63.70;;;;;;5090511;28;20035;-35
2022/09/15 01:33:05;;;;;;;17.65;13.15;;;23.60;63.70;;;;;;5105074;28;20462;-36
2022/09/15 01:35:59;;;;;;;16.38;12.23;;;23.70;63.70;;;;;;5079179;28;20758;-34
2022/09/15 01:38:30;;;;;;;18.17;12.32;;;23.70;63.60;;;;;;5095273;28;20032;-35
2022/09/15 01:41:04;;;;;;;15.95;12.05;;;23.70;63.50;;;;;;5119545;28;20110;-35
2022/09/15 01:43:30;;;;;;;16.80;12.10;;;23.70;63.50;;;;;;5071316;28;20033;-35
2022/09/15 01:45:56;;;;;;;14.25;11.00;;;23.70;63.50;;;;;;5082618;28;20033;-35
2022/09/15 01:48:24;;;;;;;16.95;11.95;;;23.70;63.50;;;;;;5083602;28;20035;-35
2022/09/15 01:50:53;;;;;;;16.70;11.68;;;23.70;63.50;;;;;;5102298;28;20050;-35
2022/09/15 01:53:20;;;;;;;15.07;11.02;;;23.70;63.40;;;;;;5111246;28;20036;-35
2022/09/15 01:55:55;;;;;;;13.43;10.05;;;23.70;63.40;;;;;;5072535;28;20156;-35
2022/09/15 01:58:21;;;;;;;13.82;10.93;;;23.70;63.40;;;;;;5104752;28;20031;-35
2022/09/15 02:01:07;;;;;;;14.52;10.68;;;23.70;63.40;;;;;;5116159;28;20035;-35
2022/09/15 02:03:49;;;;;;;13.35;10.43;;;23.70;63.40;;;;;;5102370;28;20027;-35
2022/09/15 02:06:42;;;;;;;12.25;9.88;;;23.70;63.50;;;;;;5084462;28;20678;-40
2022/09/15 02:09:29;;;;;;;13.57;10.30;;;23.70;63.50;;;;;;5083912;28;20028;-35
2022/09/15 02:12:13;;;;;;;13.63;10.20;;;23.70;63.50;;;;;;5111300;28;20055;-35
2022/09/15 02:15:07;;;;;;;12.13;9.05;;;23.70;63.40;;;;;;5085077;28;20028;-35
2022/09/15 02:17:50;;;;;;;13.10;9.73;;;23.70;63.50;;;;;;5100595;28;20027;-35
2022/09/15 02:20:37;;;;;;;12.90;8.85;;;23.70;63.50;;;;;;5117839;28;20070;-35
2022/09/15 02:23:30;;;;;;;12.38;9.20;;;23.70;63.50;;;;;;5087000;28;20051;-35
2022/09/15 02:26:03;;;;;;;12.77;9.63;;;23.70;63.60;;;;;;5085338;28;20035;-35
2022/09/15 02:28:32;;;;;;;10.98;9.10;;;23.70;63.60;;;;;;5098003;28;20032;-35
2022/09/15 02:30:58;;;;;;;11.90;9.10;;;23.70;63.60;;;;;;5078327;28;20028;-35
2022/09/15 02:33:27;;;;;;;10.50;8.27;;;23.70;63.50;;;;;;5095057;28;20037;-35
2022/09/15 02:35:53;;;;;;;10.25;7.68;;;23.60;64.00;;;;;;5077165;28;20130;-50
2022/09/15 02:38:20;;;;;;;9.35;6.93;;;23.70;63.90;;;;;;5097016;28;20086;-51
2022/09/15 02:40:46;;;;;;;;;;;23.60;63.20;;;;;;5094612;28;20028;-44
2022/09/15 02:43:16;;;;;;;7.97;5.93;;;23.70;62.80;;;;;;5091541;28;19908;-48
2022/09/15 02:45:42;;;;;;;6.70;5.20;;;23.60;62.60;;;;;;5095888;28;20028;-49
2022/09/15 02:48:09;;;;;;;6.32;4.93;;;23.60;62.20;;;;;;5101399;28;21300;-49
2022/09/15 02:50:36;;;;;;;5.73;5.10;;;23.60;61.80;;;;;;5096796;28;20039;-49
2022/09/15 02:53:02;;;;;;;6.90;5.00;;;23.60;61.40;;;;;;5097846;28;20028;-52
2022/09/15 02:55:28;;;;;;;4.53;3.78;;;23.60;61.20;;;;;;5079652;28;20070;-52
2022/09/15 02:57:57;;;;;;;4.43;3.80;;;23.50;60.90;;;;;;5101237;28;20408;-52
2022/09/15 03:00:23;;;;;;;4.85;3.70;;;23.50;60.60;;;;;;5101416;28;20035;-50
2022/09/15 03:02:51;;;;;;;4.87;3.60;;;23.50;60.30;;;;;;5105435;28;20036;-49
2022/09/15 03:05:22;;;;;;;4.05;3.42;;;23.50;60.20;;;;;;5105162;28;20276;-52
2022/09/15 03:07:48;;;;;;;3.80;3.40;;;23.50;59.90;;;;;;5114567;28;20033;-48
2022/09/15 03:10:15;;;;;;;4.30;3.47;;;23.40;59.70;;;;;;5118852;28;20063;-50
2022/09/15 03:12:51;;;;;;;3.42;2.90;;;23.40;59.70;;;;;;5104002;28;20051;-49
2022/09/15 03:15:19;;;;;;;5.07;3.10;;;23.30;59.60;;;;;;5110138;28;20424;-51
2022/09/15 03:17:46;;;;;;;2.90;2.47;;;23.30;59.50;;;;;;5085458;28;20526;-50
2022/09/15 03:20:14;;;;;;;2.70;2.50;;;23.30;59.50;;;;;;5097444;28;20055;-49
2022/09/15 03:22:40;;;;;;;2.47;2.28;;;23.30;59.30;;;;;;5108176;28;20027;-49
2022/09/15 03:25:07;;;;;;;2.63;2.20;;;23.20;59.20;;;;;;5103580;28;20031;-48
2022/09/15 03:27:34;;;;;;;2.90;2.33;;;23.20;59.10;;;;;;5109368;28;20174;-49
2022/09/15 03:30:00;;;;;;;2.28;1.90;;;23.20;59.10;;;;;;5110015;28;20032;-51
2022/09/15 03:32:26;;;;;;;1.93;1.73;;;23.10;59.00;;;;;;5096940;28;20050;-52
2022/09/15 03:34:52;;;;;;;2.25;1.90;;;23.10;59.50;;;;;;5114485;28;20288;-52
2022/09/15 03:37:19;;;;;;;1.95;1.70;;;23.10;58.80;;;;;;5106428;28;20028;-50
2022/09/15 03:39:46;;;;;;;1.67;1.57;;;23.00;58.80;;;;;;5102825;28;20053;-48
2022/09/15 03:42:13;;;;;;;1.90;1.60;;;23.00;58.80;;;;;;5101288;28;20026;-49
2022/09/15 03:44:39;;;;;;;2.65;1.98;;;22.90;58.70;;;;;;5101590;28;20047;-46
2022/09/15 03:47:05;;;;;;;1.50;1.40;;;22.90;58.70;;;;;;5109167;28;20019;-50
2022/09/15 03:49:31;;;;;;;2.03;1.65;;;22.90;58.60;;;;;;5116688;28;20055;-51
2022/09/15 03:51:57;;;;;;;2.03;1.60;;;22.80;58.60;;;;;;5111005;28;20024;-51
2022/09/15 03:54:26;;;;;;;1.07;0.97;;;22.80;58.50;;;;;;5085368;28;20028;-54
2022/09/15 03:56:53;;;;;;;1.50;1.20;;;22.80;58.60;;;;;;5107593;28;20031;-54
2022/09/15 03:59:19;;;;;;;1.40;1.30;;;22.70;58.60;;;;;;5101719;28;20512;-52
2022/09/15 04:01:46;;;;;;;1.30;1.20;;;22.70;58.60;;;;;;5102823;28;20044;-45
2022/09/15 04:04:12;;;;;;;1.30;1.20;;;22.60;58.60;;;;;;5109324;28;20027;-48
2022/09/15 04:06:39;;;;;;;1.47;1.37;;;22.60;58.70;;;;;;5104686;28;20038;-44
2022/09/15 04:09:05;;;;;;;1.40;1.30;;;22.60;58.70;;;;;;5111474;28;20095;-45
2022/09/15 04:11:31;;;;;;;1.70;1.27;;;22.50;58.60;;;;;;5105266;28;20056;-49
2022/09/15 04:13:57;;;;;;;1.27;1.17;;;22.50;58.50;;;;;;5097664;28;20028;-53
2022/09/15 04:16:24;;;;;;;1.10;1.00;;;22.50;58.50;;;;;;5103251;28;20123;-48
2022/09/15 04:18:51;;;;;;;1.30;1.15;;;22.40;58.40;;;;;;5103949;28;20028;-46
2022/09/15 04:21:20;;;;;;;1.60;1.10;;;22.40;58.40;;;;;;5110403;28;20742;-46
2022/09/15 04:23:46;;;;;;;1.40;1.10;;;22.30;58.30;;;;;;5121701;28;20061;-48
2022/09/15 04:26:27;;;;;;;1.20;1.05;;;22.30;58.30;;;;;;5110792;28;20773;-49
2022/09/15 04:28:53;;;;;;;1.15;1.00;;;22.30;58.30;;;;;;5099190;28;20086;-46
2022/09/15 04:31:20;;;;;;;0.80;0.80;;;22.20;58.30;;;;;;5095926;28;20479;-46
2022/09/15 04:33:46;;;;;;;1.10;0.90;;;22.20;58.30;;;;;;5122143;28;20051;-47
2022/09/15 04:36:17;;;;;;;1.57;1.17;;;22.10;58.30;;;;;;5116127;28;20035;-47
2022/09/15 04:38:43;;;;;;;0.98;0.90;;;22.10;58.30;;;;;;5108121;28;20283;-46
2022/09/15 04:41:10;;;;;;;0.90;0.90;;;22.10;58.40;;;;;;5104512;28;20039;-46
2022/09/15 04:43:36;;;;;;;0.90;0.90;;;22.00;58.40;;;;;;5102207;28;20056;-47
2022/09/15 04:46:02;;;;;;;2.10;0.90;;;22.00;58.40;;;;;;5099210;28;20038;-46
2022/09/15 04:48:29;;;;;;;1.02;0.93;;;21.90;58.40;;;;;;5095321;28;20113;-46
2022/09/15 04:51:00;;;;;;;0.70;0.70;;;21.90;58.40;;;;;;5100639;28;20035;-46
2022/09/15 04:53:26;;;;;;;1.17;1.00;;;21.80;58.30;;;;;;5105389;28;20020;-48
2022/09/15 04:55:52;;;;;;;0.80;0.80;;;21.80;58.40;;;;;;5104410;28;20039;-47
2022/09/15 04:58:19;;;;;;;1.10;1.00;;;21.80;58.40;;;;;;5107058;28;21576;-44
2022/09/15 05:00:45;;;;;;;1.10;0.80;;;21.70;58.40;;;;;;5096263;28;20031;-47
2022/09/15 05:03:12;;;;;;;0.98;0.88;;;21.70;58.50;;;;;;5096144;28;20446;-45
2022/09/15 05:05:38;;;;;;;;;;;21.60;58.70;;;;;;5097343;28;20032;-46
2022/09/15 05:08:04;;;;;;;0.88;0.80;;;21.60;58.90;;;;;;5096570;28;19923;-46
2022/09/15 05:10:30;;;;;;;0.77;0.77;;;21.60;58.70;;;;;;5094285;28;20036;-48
2022/09/15 05:12:57;;;;;;;0.95;0.77;;;21.50;58.70;;;;;;5098723;28;20507;-46
2022/09/15 05:15:23;;;;;;;0.80;0.80;;;21.50;58.70;;;;;;5094448;28;20036;-46
2022/09/15 05:17:49;;;;;;;0.80;0.80;;;21.50;58.70;;;;;;5095963;28;20155;-44
2022/09/15 05:20:16;;;;;;;0.70;0.70;;;21.50;58.70;;;;;;5093243;28;20131;-45
2022/09/15 05:22:43;;;;;;;0.90;0.73;;;21.40;58.80;;;;;;5094483;28;20028;-45
2022/09/15 05:25:09;;;;;;;0.95;0.90;;;21.40;58.90;;;;;;5093848;28;20122;-45
2022/09/15 05:27:35;;;;;;;0.80;0.80;;;21.30;58.90;;;;;;5102945;28;20033;-46
2022/09/15 05:30:01;;;;;;;0.80;0.80;;;21.30;58.80;;;;;;5116648;28;20023;-45
2022/09/15 05:32:28;;;;;;;0.85;0.80;;;21.30;58.90;;;;;;5102575;28;20048;-46
2022/09/15 05:34:54;;;;;;;0.73;0.73;;;21.30;59.00;;;;;;5108644;28;20043;-45
2022/09/15 05:37:20;;;;;;;1.00;0.90;;;21.20;58.90;;;;;;5117250;28;20024;-45
2022/09/15 05:39:47;;;;;;;2.35;0.95;;;21.20;59.50;;;;;;5123350;28;20032;-47
2022/09/15 05:42:13;;;;;;;0.90;0.80;;;21.20;59.10;;;;;;5095545;28;20032;-46
2022/09/15 05:44:39;;;;;;;0.70;0.70;;;21.10;59.10;;;;;;5094991;28;20029;-44
2022/09/15 05:47:05;;;;;;;0.90;0.80;;;21.10;59.10;;;;;;5086058;28;20073;-45
2022/09/15 05:49:32;;;;;;;0.80;0.80;;;21.10;59.20;;;;;;5088013;28;20028;-44
2022/09/15 05:51:59;;;;;;;0.85;0.85;;;21.00;59.10;;;;;;5103369;28;20105;-45
2022/09/15 05:54:26;;;;;;;1.10;1.00;;;21.00;59.20;;;;;;5100237;28;20121;-45
2022/09/15 05:56:52;;;;;;;;;;;21.00;59.30;;;;;;5102434;28;20036;-46
2022/09/15 05:59:18;;;;;;;0.80;0.80;;;21.00;59.50;;;;;;5094199;28;19915;-46
2022/09/15 06:01:44;;;;;;;1.00;0.90;;;20.90;59.50;;;;;;5093935;28;20039;-45
2022/09/15 06:04:11;;;;;;;0.88;0.88;;;20.90;59.60;;;;;;5094924;28;20036;-45
2022/09/15 06:06:37;;;;;;;1.58;0.90;;;20.90;59.60;;;;;;5095159;28;20051;-45
2022/09/15 06:09:04;;;;;;;2.88;0.75;;;20.90;59.70;;;;;;5094754;28;20166;-45
2022/09/15 06:11:32;;;;;;;1.48;1.10;;;20.90;59.70;;;;;;5092435;28;20034;-45
2022/09/15 06:13:59;;;;;;;0.77;0.77;;;20.90;59.70;;;;;;5094819;28;20372;-46
2022/09/15 06:16:25;;;;;;;2.05;0.80;;;20.80;59.70;;;;;;5095065;28;20036;-48
2022/09/15 06:18:52;;;;;;;2.13;0.88;;;20.80;59.70;;;;;;5093648;28;20024;-48
2022/09/15 06:21:19;;;;;;;1.10;0.90;;;20.80;59.80;;;;;;5093492;28;20028;-53
2022/09/15 06:23:45;;;;;;;0.85;0.75;;;20.80;59.80;;;;;;5093232;28;20032;-54
2022/09/15 06:26:13;;;;;;;1.13;1.02;;;20.80;60.10;;;;;;5096727;28;20154;-47
2022/09/15 06:28:41;;;;;;;0.93;0.90;;;20.70;60.20;;;;;;5099679;28;20040;-47
2022/09/15 06:31:11;;;;;;;0.70;0.70;;;20.70;60.30;;;;;;5101117;28;20075;-48
2022/09/15 06:33:40;;;;;;;0.80;0.80;;;20.70;60.50;;;;;;5101628;28;20036;-47
2022/09/15 06:36:06;;;;;;;0.93;0.82;;;20.70;60.70;;;;;;5114174;28;20118;-47
2022/09/15 06:38:32;;;;;;;1.00;0.90;;;20.70;60.80;;;;;;5103883;28;20024;-50
2022/09/15 06:40:58;;;;;;;0.90;0.68;;;20.70;60.90;;;;;;5085993;28;20037;-47
2022/09/15 06:43:25;;;;;;;1.38;0.90;;;20.70;61.00;;;;;;5089307;28;20058;-45
2022/09/15 06:45:51;;;;;;;1.10;1.00;;;20.70;61.10;;;;;;5086119;28;20086;-46
2022/09/15 06:48:18;;;;;;;0.82;0.82;;;20.70;61.10;;;;;;5091620;28;20039;-45
2022/09/15 06:50:44;;;;;;;0.90;0.88;;;20.70;61.30;;;;;;5094013;28;20040;-46
2022/09/15 06:53:10;;;;;;;0.93;0.90;;;20.70;61.30;;;;;;5103460;28;20024;-45
2022/09/15 06:55:36;;;;;;;0.77;0.77;;;20.60;61.30;;;;;;5099986;28;20036;-44
2022/09/15 06:58:03;;;;;;;0.80;0.80;;;20.60;61.40;;;;;;5088246;28;20024;-44
2022/09/15 07:00:29;;;;;;;0.80;0.80;;;20.60;61.50;;;;;;5090138;28;20126;-46
2022/09/15 07:02:56;;;;;;;1.50;1.10;;;20.60;61.60;;;;;;5088220;28;20028;-48
2022/09/15 07:05:24;;;;;;;1.58;0.90;;;20.60;62.00;;;;;;5086088;28;20032;-47
2022/09/15 07:07:50;;;;;;;0.80;0.80;;;20.60;62.40;;;;;;5090423;28;20036;-47
2022/09/15 07:10:16;;;;;;;1.95;0.90;;;20.60;62.70;;;;;;5093212;28;20134;-46
2022/09/15 07:12:42;;;;;;;1.20;1.10;;;20.60;62.90;;;;;;5094595;28;20028;-46
2022/09/15 07:15:09;;;;;;;1.75;1.00;;;20.60;63.00;;;;;;5090381;28;20071;-46
2022/09/15 07:17:36;;;;;;;1.00;0.90;;;20.60;63.20;;;;;;5088020;28;20389;-43
2022/09/15 07:20:03;;;;;;;1.10;1.00;;;20.60;63.40;;;;;;5083387;28;20040;-44
2022/09/15 07:22:29;;;;;;;1.15;1.00;;;20.60;63.50;;;;;;5092434;28;20032;-46
2022/09/15 07:24:55;;;;;;;2.10;1.10;;;20.60;63.60;;;;;;5091392;28;20047;-47
2022/09/15 07:27:25;;;;;;;1.30;1.00;;;20.60;63.60;;;;;;5086232;28;20122;-47
2022/09/15 07:29:51;;;;;;;1.20;1.10;;;20.60;63.70;;;;;;5096392;28;20035;-47
2022/09/15 07:32:17;;;;;;;2.00;0.95;;;20.60;63.80;;;;;;5091687;28;20040;-47
2022/09/15 07:34:44;;;;;;;1.67;1.00;;;20.60;63.70;;;;;;5074469;28;20036;-48
2022/09/15 07:37:10;;;;;;;1.25;1.10;;;20.60;63.80;;;;;;5071281;28;20025;-44
2022/09/15 07:39:36;;;;;;;1.48;1.30;;;20.60;63.90;;;;;;5095529;28;20111;-44
2022/09/15 07:42:02;;;;;;;1.20;1.10;;;20.60;63.90;;;;;;5089471;28;20031;-45
2022/09/15 07:44:28;;;;;;;1.23;1.08;;;20.60;64.00;;;;;;5113597;28;20047;-45
2022/09/15 07:46:55;;;;;;;1.27;1.10;;;20.60;64.00;;;;;;5089763;28;20041;-45
2022/09/15 07:49:21;;;;;;;1.30;1.00;;;20.60;64.00;;;;;;5097573;28;20107;-46
2022/09/15 07:51:47;;;;;;;1.73;1.17;;;20.60;64.00;;;;;;5095551;28;20091;-48
2022/09/15 07:54:13;;;;;;;1.30;1.20;;;20.60;64.10;;;;;;5085390;28;20024;-44
2022/09/15 07:56:39;;;;;;;1.30;1.20;;;20.60;64.10;;;;;;5096588;28;20134;-44
2022/09/15 07:59:06;;;;;;;3.60;1.02;;;20.60;64.20;;;;;;5088727;28;20024;-53
2022/09/15 08:01:33;;;;;;;1.15;1.00;;;20.60;64.50;;;;;;5094912;28;20032;-56
2022/09/15 08:03:59;;;;;;;1.20;1.10;;;20.60;64.50;;;;;;5099670;28;20086;-56
2022/09/15 08:06:27;;;;;;;1.17;1.08;;;20.60;64.50;;;;;;5098126;28;20028;-56
2022/09/15 08:08:53;;;;;;;1.25;0.90;;;20.60;64.40;;;;;;5104270;28;20400;-51
2022/09/15 08:11:19;;;;;;;4.72;1.55;;;20.60;64.50;;;;;;5103119;28;20115;-48
2022/09/15 08:13:46;;;;;;;3.55;1.30;;;20.60;64.80;;;;;;5097953;28;20028;-48
2022/09/15 08:16:14;;;;;;;3.45;1.23;;;20.60;64.70;;;;;;5091839;28;20040;-44
2022/09/15 08:18:40;;;;;;;3.10;1.48;;;20.60;64.90;;;;;;5099858;28;20092;-46
2022/09/15 08:21:08;;;;;;;6.43;1.52;;;20.60;65.20;;;;;;5099445;28;20055;-43
2022/09/15 08:23:34;;;;;;;12.45;2.00;;;20.60;65.60;;;;;;5094588;28;20100;-44
2022/09/15 08:26:00;;;;;;;8.60;1.90;;;20.60;65.80;;;;;;5094993;28;20121;-47
2022/09/15 08:28:27;;;;;;;4.68;1.80;;;20.60;66.20;;;;;;5091040;28;20038;-50
2022/09/15 08:31:00;;;;;;;4.57;1.80;;;20.60;67.20;;;;;;5090031;28;20036;-53
2022/09/15 08:33:26;;;;;;;7.78;2.28;;;20.60;66.50;;;;;;5094368;28;20048;-48
2022/09/15 08:35:53;;;;;;;4.05;1.73;;;20.60;66.30;;;;;;5093991;28;20051;-50
2022/09/15 08:38:20;;;;;;;6.10;2.17;;;20.60;66.20;;;;;;5094268;28;20048;-49
2022/09/15 08:40:46;;;;;;;4.53;1.90;;;20.60;66.10;;;;;;5093445;28;20091;-52
2022/09/15 08:43:22;;;;;;;2.92;1.60;;;20.60;66.00;;;;;;5095403;28;20115;-52
2022/09/15 08:46:00;;;;;;;4.80;1.75;;;20.60;65.90;;;;;;5087164;28;20028;-48
2022/09/15 08:48:28;;;;;;;2.75;1.60;;;20.60;65.80;;;;;;5093199;28;20058;-47
2022/09/15 08:50:56;;;;;;;3.92;1.73;;;20.60;65.70;;;;;;5069669;28;20095;-46
2022/09/15 08:53:28;;;;;;;3.28;1.73;;;20.70;65.70;;;;;;5089206;28;20032;-46
2022/09/15 08:56:02;;;;;;;3.33;1.70;;;20.60;65.50;;;;;;5074585;28;20059;-46
2022/09/15 08:58:33;;;;;;;2.88;1.90;;;20.60;65.50;;;;;;5073656;28;20052;-46
2022/09/15 09:01:02;;;;;;;4.10;1.92;;;20.60;65.40;;;;;;5093451;28;20027;-48
2022/09/15 09:03:34;;;;;;;4.13;2.00;;;20.60;65.40;;;;;;5084204;28;20427;-48
2022/09/15 09:06:09;;;;;;;2.95;2.03;;;20.60;65.40;;;;;;5088532;28;20028;-47
2022/09/15 09:09:00;;;;;;;2.97;1.80;;;20.60;65.40;;;;;;5102322;28;20148;-46
2022/09/15 09:11:49;;;;;;;2.55;1.65;;;20.60;65.50;;;;;;5092194;28;20038;-48
2022/09/15 09:14:26;;;;;;;2.42;1.70;;;20.60;65.80;;;;;;5080084;28;20082;-50
2022/09/15 09:17:17;;;;;;;3.00;1.88;;;20.60;65.70;;;;;;5084130;28;20114;-49
2022/09/15 09:19:47;;;;;;;3.58;1.70;;;20.60;65.80;;;;;;5071326;28;20043;-47
2022/09/15 09:22:20;;;;;;;2.88;1.83;;;20.60;65.80;;;;;;5098064;28;20028;-50
2022/09/15 09:24:49;;;;;;;2.72;1.63;;;20.60;65.70;;;;;;5086552;28;20029;-48
2022/09/15 09:27:19;;;;;;;4.40;1.80;;;20.60;65.70;;;;;;5105222;28;20035;-47
2022/09/15 09:29:50;;;;;;;2.38;1.70;;;20.60;65.80;;;;;;5099721;28;20036;-45
2022/09/15 09:32:23;;;;;;;2.78;1.70;;;20.60;65.80;;;;;;5099990;28;20056;-45
2022/09/15 09:35:37;;;;;;;2.63;1.80;;;20.60;65.90;;;;;;5084755;28;20036;-46
2022/09/15 09:38:03;;;;;;;2.80;2.00;;;20.60;66.10;;;;;;5012745;28;20030;-45
2022/09/15 09:40:31;;;;;;;3.88;2.00;;;20.60;66.00;;;;;;4995945;28;20033;-46
2022/09/15 09:42:58;;;;;;;3.67;1.90;;;20.60;66.00;;;;;;5012497;28;20089;-52
2022/09/15 09:45:24;;;;;;;2.38;1.80;;;20.60;66.10;;;;;;5001195;28;20101;-50
2022/09/15 09:47:50;;;;;;;2.55;1.90;;;20.60;66.10;;;;;;5016551;28;20101;-51
2022/09/15 09:50:41;;;;;;;4.00;2.00;;;20.60;66.10;;;;;;5000444;28;20029;-53
2022/09/15 09:53:25;;;;;;;3.40;1.70;;;20.60;66.10;;;;;;5017126;28;20041;-50
2022/09/15 09:55:53;;;;;;;4.30;1.83;;;20.60;65.90;;;;;;5015859;28;20048;-53
2022/09/15 09:58:22;;;;;;;3.03;1.63;;;20.60;66.20;;;;;;5014047;28;20046;-53
2022/09/15 10:00:48;;;;;;;2.20;1.63;;;20.60;65.90;;;;;;5015945;28;20041;-54
2022/09/15 10:03:21;;;;;;;1.85;1.65;;;20.60;65.90;;;;;;5016527;28;20037;-51
2022/09/15 10:06:04;;;;;;;2.13;1.60;;;20.60;65.80;;;;;;5018313;28;20097;-53
2022/09/15 10:08:30;;;;;;;2.15;1.88;;;20.60;65.90;;;;;;4998095;28;20026;-53
2022/09/15 10:11:02;;;;;;;2.65;1.73;;;20.60;66.00;;;;;;5008016;28;20030;-52
2022/09/15 10:13:28;;;;;;;2.58;1.40;;;20.60;66.00;;;;;;5074770;28;20032;-53
2022/09/15 10:15:57;;;;;;;2.53;1.60;;;20.60;65.80;;;;;;5072236;28;20043;-50
2022/09/15 10:18:41;;;;;;;2.42;1.60;;;20.50;65.70;;;;;;5095583;28;20028;-49
2022/09/15 10:21:08;;;;;;;1.65;1.42;;;20.50;65.60;;;;;;5089405;28;20031;-53
2022/09/15 10:23:34;;;;;;;3.35;1.70;;;20.50;65.50;;;;;;5082494;28;20044;-58
2022/09/15 10:26:15;;;;;;;3.35;1.63;;;20.50;65.40;;;;;;5088750;28;20130;-56
2022/09/15 10:28:41;;;;;;;2.83;1.88;;;20.50;65.50;;;;;;5085335;28;20043;-59
2022/09/15 10:31:15;;;;;;;2.43;1.70;;;20.50;65.60;;;;;;5071057;28;20181;-54
2022/09/15 10:33:44;;;;;;;6.38;1.63;;;20.50;65.60;;;;;;5087178;28;20499;-56
2022/09/15 10:36:20;;;;;;;7.47;1.88;;;20.50;65.80;;;;;;5081380;28;20041;-56
2022/09/15 10:38:48;;;;;;;7.93;2.10;;;20.50;66.20;;;;;;5059667;28;20631;-58
2022/09/15 10:41:30;;;;;;;9.95;2.22;;;20.50;66.30;;;;;;5073832;28;20545;-54
2022/09/15 10:44:32;;;;;;;9.52;2.50;;;20.60;66.60;;;;;;5087350;28;20471;-47
2022/09/15 10:47:21;;;;;;;9.30;1.98;;;20.60;66.70;;;;;;5069050;28;20093;-46
2022/09/15 10:49:56;;;;;;;6.43;2.00;;;20.60;67.00;;;;;;5075139;28;20035;-46
2022/09/15 10:52:47;;;;;;;34.72;7.03;;;20.60;66.90;;;;;;5089856;28;20087;-54
2022/09/15 10:55:25;;;;;;;26.80;5.30;;;20.60;67.30;;;;;;5070696;28;20039;-51
2022/09/15 10:58:49;;;;;;;26.13;6.35;;;20.60;67.50;;;;;;5100697;28;20034;-50
2022/09/15 11:01:29;;;;;;;17.65;4.55;;;20.60;67.50;;;;;;5083654;28;20098;-51
2022/09/15 11:04:07;;;;;;;20.95;5.05;;;20.60;67.40;;;;;;5084995;28;20047;-52
2022/09/15 11:06:51;;;;;;;18.60;4.88;;;20.60;67.40;;;;;;5101597;28;20032;-53
2022/09/15 11:09:38;;;;;;;19.20;4.53;;;20.60;67.40;;;;;;5105250;28;20032;-52
2022/09/15 11:12:49;;;;;;;14.30;4.05;;;20.60;67.50;;;;;;5105811;28;20067;-52
2022/09/15 11:15:21;;;;;;;12.80;4.05;;;20.60;67.50;;;;;;5011234;28;20046;-52
2022/09/15 11:18:07;;;;;;;11.98;3.75;;;20.60;67.40;;;;;;5039774;28;20093;-54
2022/09/15 11:21:10;;;;;;;11.32;4.25;;;20.60;67.50;;;;;;5042708;28;20573;-49
2022/09/15 11:24:00;;;;;;;10.20;3.45;;;20.60;67.50;;;;;;5042009;28;20021;-54
2022/09/15 11:26:47;;;;;;;12.23;3.70;;;20.60;67.40;;;;;;5013499;28;20042;-55
2022/09/15 11:29:21;;;;;;;10.95;3.30;;;20.60;67.40;;;;;;5019206;28;20026;-52
2022/09/15 11:31:50;;;;;;;9.80;2.90;;;20.60;67.40;;;;;;5002995;28;20088;-52
2022/09/15 11:34:19;;;;;;;6.47;3.10;;;20.60;67.30;;;;;;5017843;28;20639;-53
2022/09/15 11:37:06;;;;;;;9.23;3.10;;;20.60;68.10;;;;;;5033952;28;20048;-52
2022/09/15 11:39:45;;;;;;;7.22;3.28;;;20.60;67.30;;;;;;5019702;28;20048;-54
2022/09/15 11:42:29;;;;;;;7.13;2.80;;;20.60;67.30;;;;;;5032895;28;20080;-51
2022/09/15 11:44:56;;;;;;;5.32;2.83;;;20.60;67.40;;;;;;5005051;28;20029;-52
2022/09/15 11:47:54;;;;;;;8.02;2.95;;;20.60;67.30;;;;;;5076809;28;20800;-53
2022/09/15 11:50:26;;;;;;;5.00;2.83;;;20.60;67.30;;;;;;5034446;28;20085;-53
2022/09/15 11:52:59;;;;;;;6.70;2.55;;;20.60;67.20;;;;;;5034617;28;20038;-53
2022/09/15 11:55:33;;;;;;;4.82;2.50;;;20.60;67.30;;;;;;5037736;28;20813;-53
2022/09/15 11:58:43;;;;;;;3.42;2.25;;;20.60;67.30;;;;;;5038857;28;20037;-57
2022/09/15 12:01:09;;;;;;;7.22;2.65;;;20.60;67.30;;;;;;4957103;28;20047;-53
2022/09/15 12:03:39;;;;;;;5.75;2.47;;;20.60;67.30;;;;;;4957033;28;20043;-56
2022/09/15 12:06:23;;;;;;;4.63;2.40;;;20.60;67.20;;;;;;4954150;28;20090;-54
2022/09/15 12:08:59;;;;;;;4.72;2.50;;;20.60;67.30;;;;;;4955782;28;20054;-53
2022/09/15 12:11:30;;;;;;;4.88;2.35;;;20.60;67.20;;;;;;4956913;28;20132;-53
2022/09/15 12:13:56;;;;;;;6.10;2.33;;;20.60;67.20;;;;;;4956684;28;20047;-50
2022/09/15 12:16:22;;;;;;;3.95;2.15;;;20.60;67.30;;;;;;4954690;28;20195;-52
2022/09/15 12:19:01;;;;;;;6.03;2.63;;;20.60;67.20;;;;;;4949296;28;20039;-51
2022/09/15 12:21:38;;;;;;;4.30;2.42;;;20.60;67.20;;;;;;4947643;28;20047;-53
2022/09/15 12:24:25;;;;;;;3.70;2.40;;;20.60;67.20;;;;;;4982280;28;20041;-52
2022/09/15 12:26:51;;;;;;;3.60;2.35;;;20.60;67.20;;;;;;5025195;28;20065;-54
2022/09/15 12:29:26;;;;;;;3.78;2.17;;;20.60;67.10;;;;;;5033718;28;20034;-51
2022/09/15 12:32:32;;;;;;;5.88;2.30;;;20.60;67.10;;;;;;5021263;28;20081;-54
2022/09/15 12:35:17;;;;;;;2.80;2.03;;;20.60;67.10;;;;;;5038479;28;20108;-51
2022/09/15 12:37:46;;;;;;;3.53;2.22;;;20.60;67.10;;;;;;5086652;28;20547;-53
2022/09/15 12:40:41;;;;;;;4.60;2.17;;;20.60;67.10;;;;;;5063913;28;20032;-53
2022/09/15 12:43:17;;;;;;;3.88;2.47;;;20.60;67.10;;;;;;5056419;28;20051;-53
2022/09/15 12:45:55;;;;;;;4.03;2.55;;;20.60;67.10;;;;;;5083789;28;20046;-51
2022/09/15 12:48:24;;;;;;;4.00;2.33;;;20.60;67.10;;;;;;5083560;28;20036;-54
2022/09/15 12:50:54;;;;;;;4.50;2.42;;;20.60;67.10;;;;;;5084777;28;20136;-54
2022/09/15 12:53:52;;;;;;;3.03;2.08;;;20.60;67.10;;;;;;5065548;28;20024;-50
2022/09/15 12:56:22;;;;;;;4.15;2.20;;;20.60;67.10;;;;;;5081716;28;20040;-54
2022/09/15 12:58:48;;;;;;;4.70;2.22;;;20.60;67.10;;;;;;5065728;28;20088;-51
2022/09/15 13:01:18;;;;;;;3.53;2.20;;;20.60;67.10;;;;;;5083583;28;20060;-54
2022/09/15 13:04:01;;;;;;;3.85;2.30;;;20.60;67.10;;;;;;5083309;28;20035;-56
2022/09/15 13:06:34;;;;;;;3.20;2.15;;;20.60;67.10;;;;;;5082905;28;20058;-51